Elk Ranch, Arkansas
Current Conditions -  °F | °C
As of 5:57 PM on Wednesday 28 Jan 2015 (Local Time) from KROG Reporting Station
Clear Clear  
Wind Chill: 63°   Ceiling: Unl
Heat Index: 63°   Visibility: 10mi
Dew Point: 41°   Wind: 14mph
Humidity: 45%   Direction: 180°S
Pressure: 29.92"   Gusts: NA
Location:  36.4036°N, 93.7443°W
Report Text: KROG 282357Z 18012KT 10SM CLR 17/05 A2992 RMK AO2 SLP130 T01720050 10217 20172 55003
Loading
Personal Weather Stations






























Interactive Weather Map New forecast layout! Learn more

10-Day Weather Forecast

Advertisements
Track Severe Weather on mobile